Time;durP1;ratioP1;P1;durP2;ratioP2;P2;SDS_P1;SDS_P2;PMS_P1;PMS_P2;Temp;Humidity;BMP_temperature;BMP_pressure;BME280_temperature;BME280_humidity;BME280_pressure;Samples;Min_cycle;Max_cycle;Signal;HPM_P1;HPM_P2
2022/12/13 00:01:22;;;;;;;3.00;2.03;;;18.80;55.60;;;;;;5051583;28;20124;-63
2022/12/13 00:03:48;;;;;;;2.70;1.92;;;18.80;55.60;;;;;;5057098;28;20479;-64
2022/12/13 00:06:14;;;;;;;2.42;1.77;;;18.80;55.60;;;;;;5053835;28;20028;-65
2022/12/13 00:08:40;;;;;;;2.80;1.80;;;18.80;55.60;;;;;;5058858;28;20028;-65
2022/12/13 00:11:09;;;;;;;2.72;1.88;;;18.80;55.60;;;;;;5050032;28;20028;-64
2022/12/13 00:13:35;;;;;;;3.35;2.10;;;18.80;55.60;;;;;;5059584;28;20036;-64
2022/12/13 00:16:07;;;;;;;3.08;1.98;;;18.80;55.60;;;;;;5057182;28;20468;-64
2022/12/13 00:18:33;;;;;;;2.80;1.90;;;18.80;55.60;;;;;;5050976;28;20024;-65
2022/12/13 00:21:02;;;;;;;2.80;2.00;;;18.70;55.50;;;;;;5047324;28;20035;-64
2022/12/13 00:23:28;;;;;;;;;;;18.70;55.50;;;;;;5047767;28;20120;-64
2022/12/13 00:25:53;;;;;;;2.85;1.83;;;18.80;55.60;;;;;;5059099;28;19944;-64
2022/12/13 00:28:19;;;;;;;2.47;1.77;;;18.70;55.50;;;;;;5057364;28;20044;-64
2022/12/13 00:30:45;;;;;;;3.33;2.10;;;18.70;55.50;;;;;;5048669;28;20025;-63
2022/12/13 00:33:10;;;;;;;2.70;1.85;;;18.70;55.50;;;;;;5059933;28;20043;-63
2022/12/13 00:35:40;;;;;;;2.58;1.80;;;18.70;55.50;;;;;;5058810;28;20449;-65
2022/12/13 00:38:06;;;;;;;2.60;2.00;;;18.70;55.50;;;;;;5056013;28;20029;-64
2022/12/13 00:40:32;;;;;;;2.47;1.75;;;18.70;55.50;;;;;;5054742;28;20052;-65
2022/12/13 00:42:57;;;;;;;2.80;2.03;;;18.70;55.50;;;;;;5045389;28;20100;-64
2022/12/13 00:45:23;;;;;;;2.70;1.80;;;18.70;55.50;;;;;;5056137;28;20028;-65
2022/12/13 00:47:49;;;;;;;2.80;2.03;;;18.70;55.50;;;;;;5034725;28;20078;-64
2022/12/13 00:50:14;;;;;;;2.88;1.80;;;18.70;55.50;;;;;;5055567;28;20032;-65
2022/12/13 00:52:40;;;;;;;2.63;1.80;;;18.70;55.50;;;;;;5055347;28;20112;-64
2022/12/13 00:55:07;;;;;;;3.00;2.08;;;18.70;55.50;;;;;;5053163;28;20473;-65
2022/12/13 00:57:32;;;;;;;2.70;1.80;;;18.70;55.50;;;;;;5046656;28;20094;-64
2022/12/13 00:59:58;;;;;;;2.90;1.80;;;18.70;55.50;;;;;;5049087;28;20032;-64
2022/12/13 01:02:24;;;;;;;2.35;1.75;;;18.70;55.50;;;;;;5053589;28;20484;-65
2022/12/13 01:04:50;;;;;;;3.05;2.10;;;18.60;55.40;;;;;;5060959;28;20248;-64
2022/12/13 01:07:15;;;;;;;2.90;1.90;;;18.60;55.40;;;;;;5050075;28;20104;-64
2022/12/13 01:09:41;;;;;;;3.03;1.98;;;18.60;55.40;;;;;;5051666;28;20024;-64
2022/12/13 01:12:10;;;;;;;2.75;1.90;;;18.60;55.40;;;;;;5046598;28;20027;-64
2022/12/13 01:14:37;;;;;;;2.88;1.85;;;18.60;55.40;;;;;;5046200;28;20029;-64
2022/12/13 01:17:03;;;;;;;2.58;1.63;;;18.60;55.40;;;;;;5059354;28;20109;-64
2022/12/13 01:19:29;;;;;;;2.45;1.70;;;18.60;55.40;;;;;;5064005;28;20033;-64
2022/12/13 01:22:05;;;;;;;2.70;1.80;;;18.60;55.40;;;;;;5061911;28;20047;-66
2022/12/13 01:24:32;;;;;;;2.72;1.70;;;18.60;55.40;;;;;;5051804;28;20444;-63
2022/12/13 01:26:57;;;;;;;2.80;1.85;;;18.60;55.40;;;;;;5047351;28;20063;-64
2022/12/13 01:29:24;;;;;;;2.92;1.92;;;18.60;55.40;;;;;;5051196;28;20071;-65
2022/12/13 01:31:50;;;;;;;2.70;1.90;;;18.50;55.40;;;;;;5052998;28;20087;-64
2022/12/13 01:34:17;;;;;;;3.30;1.90;;;18.60;55.40;;;;;;5056374;28;20431;-65
2022/12/13 01:36:45;;;;;;;2.65;1.83;;;18.60;55.40;;;;;;5052736;28;20059;-64
2022/12/13 01:39:13;;;;;;;3.13;1.98;;;18.60;55.40;;;;;;5048314;28;20116;-64
2022/12/13 01:41:39;;;;;;;3.40;2.00;;;18.50;55.40;;;;;;5044934;28;20506;-64
2022/12/13 01:44:26;;;;;;;2.95;1.95;;;18.60;55.40;;;;;;5050769;28;20043;-65
2022/12/13 01:46:52;;;;;;;2.35;1.67;;;18.50;55.40;;;;;;5002903;28;20492;-64
2022/12/13 01:49:18;;;;;;;2.85;1.88;;;18.50;55.40;;;;;;5049082;28;20032;-64
2022/12/13 01:52:05;;;;;;;2.80;2.10;;;18.50;55.40;;;;;;5053891;28;20025;-66
2022/12/13 01:54:37;;;;;;;2.90;2.00;;;18.50;55.30;;;;;;5053716;28;20017;-64
2022/12/13 01:57:06;;;;;;;3.28;2.15;;;18.50;55.40;;;;;;5047405;28;20374;-65
2022/12/13 01:59:35;;;;;;;2.75;1.90;;;18.50;55.40;;;;;;5052856;28;20021;-64
2022/12/13 02:02:01;;;;;;;3.20;2.00;;;18.50;55.30;;;;;;5053248;28;20060;-64
2022/12/13 02:04:44;;;;;;;2.42;1.70;;;18.50;55.30;;;;;;5047201;28;20021;-65
2022/12/13 02:07:13;;;;;;;2.63;1.85;;;18.50;55.40;;;;;;5050519;28;20056;-63
2022/12/13 02:09:38;;;;;;;2.50;1.90;;;18.50;55.30;;;;;;5045054;28;20098;-63
2022/12/13 02:12:04;;;;;;;2.97;2.08;;;18.40;55.30;;;;;;5051031;28;20037;-64
2022/12/13 02:14:30;;;;;;;2.78;1.98;;;18.40;55.30;;;;;;5052345;28;20108;-64
2022/12/13 02:17:00;;;;;;;2.90;2.00;;;18.40;55.30;;;;;;5047124;28;20028;-64
2022/12/13 02:19:29;;;;;;;3.10;2.30;;;18.40;55.20;;;;;;5052908;28;20100;-64
2022/12/13 02:22:30;;;;;;;2.90;2.00;;;18.40;55.30;;;;;;5051802;28;20458;-64
2022/12/13 02:25:24;;;;;;;2.72;1.90;;;18.40;55.20;;;;;;5020865;28;20033;-64
2022/12/13 02:28:47;;;;;;;3.03;1.90;;;18.40;55.20;;;;;;5045639;28;20037;-65
2022/12/13 02:31:29;;;;;;;2.78;1.90;;;18.40;55.30;;;;;;4958569;28;20126;-64
2022/12/13 02:34:07;;;;;;;3.00;2.20;;;18.40;55.30;;;;;;5039060;28;20040;-64
2022/12/13 02:36:54;;;;;;;2.95;2.13;;;18.30;55.30;;;;;;5047097;28;20539;-64
2022/12/13 02:39:30;;;;;;;3.25;2.20;;;18.40;55.30;;;;;;5055706;28;20035;-65
2022/12/13 02:42:18;;;;;;;3.30;2.40;;;18.30;55.30;;;;;;5062573;28;20370;-64
2022/12/13 02:45:07;;;;;;;3.53;2.20;;;18.30;55.30;;;;;;5049428;28;20060;-64
2022/12/13 02:47:34;;;;;;;2.80;1.77;;;18.30;55.20;;;;;;5046152;28;20017;-65
2022/12/13 02:50:04;;;;;;;3.13;2.03;;;18.30;55.80;;;;;;5047546;28;20028;-64
2022/12/13 02:52:31;;;;;;;3.38;2.35;;;18.30;55.20;;;;;;5044671;28;20470;-65
2022/12/13 02:54:57;;;;;;;3.35;2.15;;;18.30;55.30;;;;;;5058267;28;20025;-64
2022/12/13 02:57:43;;;;;;;2.97;2.10;;;18.30;55.30;;;;;;5053592;28;20497;-64
2022/12/13 03:00:48;;;;;;;2.80;2.00;;;18.30;55.80;;;;;;5046572;28;20021;-63
2022/12/13 03:03:47;;;;;;;3.30;2.22;;;18.20;55.20;;;;;;5033979;28;20040;-64
2022/12/13 03:06:30;;;;;;;3.03;1.80;;;18.20;55.20;;;;;;5053927;28;20029;-64
2022/12/13 03:09:19;;;;;;;2.97;2.10;;;18.30;55.30;;;;;;5059361;28;20488;-63
2022/12/13 03:15:07;;;;;;;3.00;2.15;;;18.20;55.20;;;;;;5056215;28;20029;-64
2022/12/13 03:17:40;;;;;;;2.92;2.20;;;18.20;55.20;;;;;;5064886;28;20365;-64
2022/12/13 03:20:07;;;;;;;3.20;2.10;;;18.20;55.20;;;;;;5059581;28;20452;-65
2022/12/13 03:22:33;;;;;;;3.30;2.45;;;18.20;55.20;;;;;;5058180;28;20029;-65
2022/12/13 03:24:59;;;;;;;3.10;2.30;;;18.20;55.20;;;;;;5064543;28;20025;-64
2022/12/13 03:27:25;;;;;;;3.03;2.22;;;18.20;55.20;;;;;;5058306;28;20560;-65
2022/12/13 03:29:51;;;;;;;3.33;2.50;;;18.20;55.20;;;;;;5050503;28;20029;-65
2022/12/13 03:32:16;;;;;;;2.90;2.20;;;18.20;55.10;;;;;;5038073;28;20393;-64
2022/12/13 03:34:42;;;;;;;3.25;2.25;;;18.20;55.20;;;;;;5050153;28;20017;-64
2022/12/13 03:37:07;;;;;;;3.05;2.22;;;18.20;55.20;;;;;;5052733;28;20057;-64
2022/12/13 03:39:33;;;;;;;2.92;2.03;;;18.20;55.20;;;;;;5057970;28;20016;-64
2022/12/13 03:41:59;;;;;;;3.05;2.10;;;18.20;55.20;;;;;;5049669;28;20017;-64
2022/12/13 03:44:25;;;;;;;3.10;2.28;;;18.20;55.20;;;;;;5051670;28;20025;-64
2022/12/13 03:46:51;;;;;;;3.20;2.30;;;18.10;55.10;;;;;;5065005;28;20060;-63
2022/12/13 03:49:17;;;;;;;3.40;2.17;;;18.10;55.10;;;;;;5048612;28;20105;-64
2022/12/13 03:51:43;;;;;;;2.92;2.00;;;18.10;55.10;;;;;;5054362;28;20132;-63
2022/12/13 03:54:08;;;;;;;3.20;2.20;;;18.10;55.10;;;;;;5049703;28;20025;-64
2022/12/13 03:56:34;;;;;;;3.15;2.13;;;18.10;55.00;;;;;;5047281;28;20059;-63
2022/12/13 03:59:01;;;;;;;3.30;2.38;;;18.10;55.00;;;;;;5055460;28;20112;-64
2022/12/13 04:01:27;;;;;;;2.90;2.13;;;18.10;55.10;;;;;;5046759;28;20052;-65
2022/12/13 04:03:53;;;;;;;3.30;2.10;;;18.10;55.00;;;;;;5040462;28;20040;-63
2022/12/13 04:06:18;;;;;;;3.20;2.30;;;18.10;55.00;;;;;;5056307;28;20017;-63
2022/12/13 04:08:44;;;;;;;2.90;2.10;;;18.10;55.00;;;;;;5050394;28;20025;-64
2022/12/13 04:13:55;;;;;;;3.15;2.30;;;18.10;55.00;;;;;;5057152;28;20028;-64
2022/12/13 04:16:21;;;;;;;2.92;1.95;;;18.10;55.00;;;;;;5048276;28;20374;-63
2022/12/13 04:18:47;;;;;;;3.10;2.10;;;18.10;55.00;;;;;;5045341;28;20485;-62
2022/12/13 04:21:13;;;;;;;3.08;2.35;;;18.10;55.00;;;;;;5048480;28;20039;-66
2022/12/13 04:23:38;;;;;;;2.70;2.05;;;18.10;55.00;;;;;;5055890;28;20028;-64
2022/12/13 04:26:04;;;;;;;3.20;2.17;;;18.10;55.00;;;;;;5054752;28;20101;-65
2022/12/13 04:28:30;;;;;;;3.20;2.30;;;18.10;55.00;;;;;;5059642;28;20028;-64
2022/12/13 04:30:55;;;;;;;2.80;2.10;;;18.10;55.00;;;;;;5037282;28;20036;-64
2022/12/13 04:33:22;;;;;;;3.42;2.22;;;18.10;54.90;;;;;;5056582;28;20039;-63
2022/12/13 04:35:49;;;;;;;2.83;2.00;;;18.10;54.90;;;;;;5036333;28;20049;-66
2022/12/13 04:38:15;;;;;;;2.80;2.03;;;18.10;54.90;;;;;;5049336;28;20032;-64
2022/12/13 04:40:40;;;;;;;2.58;1.95;;;18.10;54.90;;;;;;5058738;28;20610;-64
2022/12/13 04:43:06;;;;;;;3.58;2.42;;;18.10;55.00;;;;;;5056005;28;20035;-64
2022/12/13 04:45:32;;;;;;;3.30;2.35;;;18.10;54.90;;;;;;5048965;28;20036;-64
2022/12/13 04:47:57;;;;;;;3.42;2.42;;;18.10;54.80;;;;;;5053649;28;20025;-64
2022/12/13 04:50:23;;;;;;;3.08;2.15;;;18.10;54.90;;;;;;5057596;28;20028;-64
2022/12/13 04:52:48;;;;;;;3.22;2.20;;;18.10;54.90;;;;;;5057648;28;20067;-64
2022/12/13 04:55:14;;;;;;;2.83;1.95;;;18.10;54.90;;;;;;5049183;28;20025;-64
2022/12/13 04:57:40;;;;;;;3.00;2.25;;;18.10;54.80;;;;;;5053095;28;20021;-64
2022/12/13 05:00:08;;;;;;;2.80;2.10;;;18.10;54.80;;;;;;5045079;28;20025;-63
2022/12/13 05:02:34;;;;;;;3.58;2.30;;;18.10;54.80;;;;;;5044220;28;20033;-64
2022/12/13 05:04:59;;;;;;;2.85;2.10;;;18.10;54.80;;;;;;5050170;28;20504;-64
2022/12/13 05:07:26;;;;;;;2.83;2.05;;;18.10;54.70;;;;;;5051419;28;20029;-65
2022/12/13 05:09:52;;;;;;;2.90;2.10;;;18.10;54.60;;;;;;5050396;28;20024;-64
2022/12/13 05:12:18;;;;;;;3.25;2.28;;;18.10;54.50;;;;;;5037315;28;20191;-64
2022/12/13 05:14:44;;;;;;;2.85;2.00;;;18.10;54.40;;;;;;5044192;28;20243;-64
2022/12/13 05:17:09;;;;;;;3.42;2.20;;;18.10;54.40;;;;;;5048096;28;20029;-65
2022/12/13 05:19:35;;;;;;;3.88;2.58;;;18.10;54.40;;;;;;5059258;28;20025;-65
2022/12/13 05:22:00;;;;;;;2.90;2.10;;;18.10;54.30;;;;;;5055022;28;20130;-64
2022/12/13 05:24:26;;;;;;;3.22;2.40;;;18.10;54.30;;;;;;5052402;28;20443;-66
2022/12/13 05:26:52;;;;;;;3.30;2.38;;;18.10;54.20;;;;;;5043785;28;20119;-64
2022/12/13 05:29:17;;;;;;;3.40;2.40;;;18.10;54.20;;;;;;5038686;28;20070;-64
2022/12/13 05:31:43;;;;;;;3.15;2.38;;;18.10;54.20;;;;;;5048722;28;20025;-65
2022/12/13 05:34:09;;;;;;;4.05;2.70;;;18.10;54.20;;;;;;5033596;28;20091;-66
2022/12/13 05:36:34;;;;;;;3.30;2.20;;;18.20;54.30;;;;;;5044665;28;20025;-65
2022/12/13 05:39:00;;;;;;;3.22;2.30;;;18.20;54.20;;;;;;5054336;28;20052;-65
2022/12/13 05:41:30;;;;;;;3.58;2.60;;;18.20;54.20;;;;;;5049963;28;20544;-65
2022/12/13 05:43:56;;;;;;;3.50;2.40;;;18.20;54.20;;;;;;5048831;28;20021;-65
2022/12/13 05:46:22;;;;;;;3.60;2.50;;;18.20;54.30;;;;;;5054537;28;20029;-65
2022/12/13 05:48:47;;;;;;;3.53;2.40;;;18.20;54.30;;;;;;5053941;28;20028;-64
2022/12/13 05:51:13;;;;;;;3.67;2.78;;;18.20;54.30;;;;;;5058137;28;20044;-65
2022/12/13 05:53:40;;;;;;;3.38;2.47;;;18.20;54.40;;;;;;5046215;28;20060;-65
2022/12/13 05:56:07;;;;;;;3.53;2.42;;;18.20;54.40;;;;;;5044837;28;20469;-65
2022/12/13 05:58:32;;;;;;;4.00;2.83;;;18.20;54.50;;;;;;5053924;28;20499;-65
2022/12/13 06:01:14;;;;;;;4.40;2.60;;;18.20;54.50;;;;;;5044904;28;20052;-65
2022/12/13 06:03:40;;;;;;;3.50;2.50;;;18.20;54.50;;;;;;5048435;28;20489;-65
2022/12/13 06:06:08;;;;;;;3.80;2.53;;;18.20;54.60;;;;;;5048504;28;20377;-64
2022/12/13 06:08:34;;;;;;;4.00;2.50;;;18.20;54.60;;;;;;5050538;28;20031;-64
2022/12/13 06:11:01;;;;;;;3.70;2.95;;;18.20;54.70;;;;;;5051730;28;20468;-65
2022/12/13 06:13:27;;;;;;;3.97;2.70;;;18.20;54.70;;;;;;5044683;28;20021;-65
2022/12/13 06:15:53;;;;;;;3.90;2.45;;;18.20;54.70;;;;;;5047496;28;20032;-64
2022/12/13 06:18:19;;;;;;;3.08;2.40;;;18.20;54.70;;;;;;5057985;28;20036;-65
2022/12/13 06:20:54;;;;;;;4.63;2.75;;;18.20;54.70;;;;;;5053073;28;20029;-65
2022/12/13 06:23:20;;;;;;;4.10;2.63;;;18.20;54.70;;;;;;5049034;28;20049;-66
2022/12/13 06:25:45;;;;;;;3.10;2.35;;;18.20;54.70;;;;;;5043832;28;20033;-65
2022/12/13 06:28:11;;;;;;;3.58;2.70;;;18.20;54.70;;;;;;5044250;28;20455;-65
2022/12/13 06:30:37;;;;;;;3.75;2.47;;;18.30;54.70;;;;;;5047433;28;20029;-65
2022/12/13 06:33:02;;;;;;;3.65;2.47;;;18.20;54.60;;;;;;5051328;28;20027;-64
2022/12/13 06:35:28;;;;;;;3.58;2.80;;;18.20;54.60;;;;;;5052208;28;20017;-65
2022/12/13 06:37:53;;;;;;;3.72;2.50;;;18.20;54.60;;;;;;5050040;28;20021;-65
2022/12/13 06:40:19;;;;;;;3.00;2.35;;;18.20;54.60;;;;;;5043203;28;20033;-64
2022/12/13 06:42:45;;;;;;;4.05;2.50;;;18.20;54.50;;;;;;5055218;28;20460;-65
2022/12/13 06:45:10;;;;;;;3.35;2.55;;;18.20;54.50;;;;;;5062898;28;20032;-65
2022/12/13 06:47:36;;;;;;;3.30;2.38;;;18.20;54.50;;;;;;5059583;28;20446;-66
2022/12/13 06:50:02;;;;;;;3.38;2.35;;;18.20;54.50;;;;;;5050594;28;20393;-65
2022/12/13 06:52:27;;;;;;;3.47;2.35;;;18.20;54.50;;;;;;5052021;28;20047;-65
2022/12/13 06:54:53;;;;;;;3.38;2.22;;;18.20;54.50;;;;;;5048456;28;20022;-65
2022/12/13 06:57:19;;;;;;;3.13;2.30;;;18.20;54.50;;;;;;5059072;28;20017;-65
2022/12/13 06:59:44;;;;;;;3.60;2.50;;;18.20;54.50;;;;;;5062062;28;20025;-64
2022/12/13 07:02:10;;;;;;;3.35;2.30;;;18.20;54.50;;;;;;5060432;28;20036;-65
2022/12/13 07:04:35;;;;;;;3.20;2.30;;;18.20;54.50;;;;;;5055941;28;20048;-65
2022/12/13 07:07:01;;;;;;;3.38;2.20;;;18.20;54.50;;;;;;5045510;28;20025;-65
2022/12/13 07:09:31;;;;;;;3.42;2.40;;;18.20;54.40;;;;;;5047231;28;20131;-65
2022/12/13 07:11:57;;;;;;;3.38;2.50;;;18.20;54.50;;;;;;5056896;28;20078;-65
2022/12/13 07:14:23;;;;;;;3.35;2.30;;;18.20;54.50;;;;;;5055904;28;20125;-65
2022/12/13 07:16:48;;;;;;;3.42;2.38;;;18.20;54.50;;;;;;5061525;28;20482;-65
2022/12/13 07:19:14;;;;;;;3.58;2.40;;;18.20;54.40;;;;;;5057360;28;20118;-64
2022/12/13 07:21:40;;;;;;;3.92;2.22;;;18.20;54.40;;;;;;5057882;28;20119;-65
2022/12/13 07:24:06;;;;;;;2.83;2.13;;;18.20;54.40;;;;;;5056970;28;20421;-66
2022/12/13 07:26:31;;;;;;;3.00;2.10;;;18.20;54.40;;;;;;5056365;28;20025;-65
2022/12/13 07:28:57;;;;;;;3.30;2.40;;;18.20;54.40;;;;;;5054449;28;20037;-64
2022/12/13 07:31:24;;;;;;;3.40;2.45;;;18.20;54.40;;;;;;5046391;28;20053;-65
2022/12/13 07:33:50;;;;;;;2.95;2.25;;;18.20;54.40;;;;;;5052205;28;20502;-65
2022/12/13 07:36:20;;;;;;;3.08;2.40;;;18.20;54.40;;;;;;5062451;28;20052;-65
2022/12/13 07:38:54;;;;;;;2.83;2.00;;;18.20;54.40;;;;;;5055689;28;20056;-65
2022/12/13 07:41:23;;;;;;;3.08;2.22;;;18.20;54.30;;;;;;5058004;28;20393;-65
2022/12/13 07:43:49;;;;;;;2.83;2.10;;;18.20;54.30;;;;;;5057848;28;20033;-65
2022/12/13 07:46:15;;;;;;;2.92;1.90;;;18.20;54.30;;;;;;5057881;28;20397;-65
2022/12/13 07:48:40;;;;;;;3.20;2.20;;;18.20;54.30;;;;;;5053719;28;20021;-65
2022/12/13 07:51:10;;;;;;;3.95;2.35;;;18.20;54.30;;;;;;5048130;28;20052;-65
2022/12/13 07:53:36;;;;;;;;;;;18.20;54.30;;;;;;5049260;28;20025;-65
2022/12/13 07:56:03;;;;;;;3.05;2.08;;;18.20;54.20;;;;;;5054544;28;19962;-65
2022/12/13 07:58:29;;;;;;;3.20;2.17;;;18.10;54.20;;;;;;5049986;28;20049;-65
2022/12/13 08:00:59;;;;;;;2.83;1.90;;;18.20;54.30;;;;;;5054169;28;20020;-65
2022/12/13 08:03:25;;;;;;;2.92;1.88;;;18.20;54.30;;;;;;5056961;28;20025;-65
2022/12/13 08:05:59;;;;;;;2.88;2.00;;;18.20;54.30;;;;;;5051126;28;20089;-64
2022/12/13 08:08:25;;;;;;;3.30;2.13;;;18.20;54.30;;;;;;5046976;28;20515;-65
2022/12/13 08:10:50;;;;;;;3.33;2.20;;;18.10;54.20;;;;;;5037862;28;20056;-65
2022/12/13 08:13:16;;;;;;;3.25;2.03;;;18.10;54.20;;;;;;5054293;28;20022;-64
2022/12/13 08:15:41;;;;;;;3.28;2.05;;;18.10;54.20;;;;;;5062309;28;20020;-65
2022/12/13 08:18:07;;;;;;;3.03;2.05;;;18.10;54.20;;;;;;5058329;28;20495;-64
2022/12/13 08:20:33;;;;;;;2.92;1.75;;;18.10;54.20;;;;;;5053683;28;20033;-64
2022/12/13 08:22:59;;;;;;;2.63;1.83;;;18.10;54.10;;;;;;5053180;28;20025;-64
2022/12/13 08:25:25;;;;;;;3.20;2.28;;;18.10;54.10;;;;;;5047785;28;20112;-65
2022/12/13 08:27:51;;;;;;;3.53;2.25;;;18.10;54.20;;;;;;5056972;28;20036;-65
2022/12/13 08:30:17;;;;;;;3.13;1.80;;;18.10;54.20;;;;;;5055310;28;20033;-65
2022/12/13 08:32:43;;;;;;;3.00;2.03;;;18.20;54.20;;;;;;5050629;28;20101;-65
2022/12/13 08:35:09;;;;;;;3.33;2.10;;;18.10;54.10;;;;;;5044358;28;20436;-65
2022/12/13 08:37:34;;;;;;;2.80;1.90;;;18.10;54.10;;;;;;5042420;28;20036;-65
2022/12/13 08:40:00;;;;;;;2.42;1.90;;;18.10;54.10;;;;;;5044500;28;20029;-66
2022/12/13 08:42:26;;;;;;;2.90;1.92;;;18.10;54.10;;;;;;5047422;28;20029;-66
2022/12/13 08:44:52;;;;;;;2.78;1.90;;;18.10;54.10;;;;;;5052458;28;20074;-65
2022/12/13 08:47:23;;;;;;;2.88;2.10;;;18.10;54.10;;;;;;5039650;28;20021;-65
2022/12/13 08:49:48;;;;;;;2.95;2.10;;;18.10;54.10;;;;;;5048295;28;20026;-65
2022/12/13 08:52:14;;;;;;;2.90;1.90;;;18.10;54.10;;;;;;5042719;28;20029;-66
2022/12/13 08:54:40;;;;;;;3.35;2.30;;;18.10;54.10;;;;;;5047437;28;20043;-65
2022/12/13 08:57:05;;;;;;;2.78;2.00;;;18.10;54.00;;;;;;5057938;28;20029;-65
2022/12/13 08:59:31;;;;;;;2.40;1.77;;;18.10;54.00;;;;;;5043905;28;20027;-65
2022/12/13 09:01:57;;;;;;;2.78;1.83;;;18.10;54.00;;;;;;5048113;28;20029;-64
2022/12/13 09:04:22;;;;;;;2.80;1.90;;;18.10;54.00;;;;;;5051169;28;20098;-65
2022/12/13 09:06:48;;;;;;;4.18;1.88;;;18.10;54.00;;;;;;5048273;28;20382;-65
2022/12/13 09:09:14;;;;;;;2.97;2.00;;;18.10;54.00;;;;;;5055330;28;20377;-64
2022/12/13 09:11:40;;;;;;;2.92;2.20;;;18.10;54.00;;;;;;5049556;28;20108;-65
2022/12/13 09:14:06;;;;;;;2.53;1.70;;;18.10;54.00;;;;;;5048314;28;20022;-64
2022/12/13 09:16:35;;;;;;;3.45;1.90;;;18.10;54.00;;;;;;5042549;28;20025;-65
2022/12/13 09:19:01;;;;;;;2.67;1.85;;;18.10;54.00;;;;;;5037467;28;20051;-65
2022/12/13 09:21:27;;;;;;;2.70;1.80;;;18.10;54.00;;;;;;5043540;28;20360;-65
2022/12/13 09:23:53;;;;;;;2.65;2.00;;;18.10;54.00;;;;;;5050869;28;20037;-65
2022/12/13 09:26:19;;;;;;;3.17;1.88;;;18.10;54.00;;;;;;5050517;28;20043;-65
2022/12/13 09:28:45;;;;;;;3.00;2.10;;;18.10;53.90;;;;;;5043738;28;20034;-65
2022/12/13 09:31:13;;;;;;;2.30;1.60;;;18.10;53.90;;;;;;5047749;28;20101;-65
2022/12/13 09:33:40;;;;;;;3.30;1.80;;;18.10;53.90;;;;;;5051682;28;20032;-66
2022/12/13 09:36:07;;;;;;;2.60;1.95;;;18.10;53.90;;;;;;5055750;28;20063;-65
2022/12/13 09:38:35;;;;;;;2.75;1.80;;;18.10;53.90;;;;;;5051940;28;20017;-65
2022/12/13 09:41:34;;;;;;;3.00;1.90;;;18.10;53.80;;;;;;5049970;28;20036;-65
2022/12/13 09:44:10;;;;;;;2.90;1.80;;;18.10;53.70;;;;;;5057956;28;20078;-65
2022/12/13 09:46:42;;;;;;;3.10;2.05;;;18.10;53.80;;;;;;5040549;28;20028;-65
2022/12/13 09:49:15;;;;;;;3.17;1.98;;;18.10;53.80;;;;;;5046014;28;20088;-66
2022/12/13 09:51:41;;;;;;;2.80;1.80;;;18.10;53.40;;;;;;5057901;28;20032;-66
2022/12/13 09:54:06;;;;;;;2.70;1.80;;;18.10;53.80;;;;;;5055758;28;20021;-66
2022/12/13 09:56:32;;;;;;;2.53;1.90;;;18.10;53.80;;;;;;5055791;28;20039;-66
2022/12/13 09:58:58;;;;;;;2.40;1.80;;;18.10;53.80;;;;;;5047268;28;20030;-66
2022/12/13 10:01:24;;;;;;;2.30;1.67;;;18.10;53.70;;;;;;5049207;28;20029;-66
2022/12/13 10:03:51;;;;;;;2.70;1.90;;;18.10;53.70;;;;;;5053084;28;20472;-66
2022/12/13 10:06:20;;;;;;;2.50;1.70;;;18.10;53.70;;;;;;5055106;28;20028;-67
2022/12/13 10:08:59;;;;;;;3.28;2.00;;;18.10;53.70;;;;;;5052745;28;20075;-67
2022/12/13 10:11:26;;;;;;;2.70;1.70;;;18.10;53.80;;;;;;5047514;28;20223;-67
2022/12/13 10:14:15;;;;;;;3.10;1.90;;;18.10;53.60;;;;;;5055711;28;20028;-66
2022/12/13 10:16:43;;;;;;;;;;;18.10;53.60;;;;;;5057034;28;20111;-67
2022/12/13 10:19:23;;;;;;;2.70;1.60;;;18.10;53.50;;;;;;5052437;28;19950;-67
2022/12/13 10:21:50;;;;;;;3.67;2.00;;;18.10;53.50;;;;;;5053906;28;20489;-67
2022/12/13 10:24:29;;;;;;;2.83;1.80;;;18.10;53.60;;;;;;5053307;28;20025;-67
2022/12/13 10:26:59;;;;;;;2.75;1.90;;;18.10;53.50;;;;;;5055138;28;20389;-66
2022/12/13 10:29:24;;;;;;;;;;;18.10;53.60;;;;;;5048282;28;20063;-67
2022/12/13 10:31:51;;;;;;;3.00;2.00;;;18.00;53.40;;;;;;5062238;28;19956;-67
2022/12/13 10:34:21;;;;;;;2.10;1.60;;;18.10;53.60;;;;;;5061282;28;20588;-66
2022/12/13 10:36:47;;;;;;;2.92;1.88;;;18.10;53.50;;;;;;5059408;28;20095;-67
2022/12/13 10:39:36;;;;;;;2.80;1.80;;;18.10;53.50;;;;;;5057117;28;20104;-67
2022/12/13 10:42:04;;;;;;;2.20;1.60;;;18.00;53.50;;;;;;5048812;28;20477;-66
2022/12/13 10:44:30;;;;;;;3.33;2.00;;;18.10;53.50;;;;;;5039142;28;20059;-66
2022/12/13 10:47:17;;;;;;;2.40;1.70;;;18.00;53.50;;;;;;5052775;28;20108;-66
2022/12/13 10:49:45;;;;;;;3.20;1.80;;;18.00;53.50;;;;;;5060312;28;20021;-67
2022/12/13 10:52:23;;;;;;;2.92;2.10;;;18.00;53.40;;;;;;5046545;28;20048;-66
2022/12/13 10:54:49;;;;;;;2.92;1.92;;;18.10;53.50;;;;;;5052812;28;20082;-66
2022/12/13 10:57:17;;;;;;;2.55;1.73;;;18.00;53.40;;;;;;5063073;28;20380;-67
2022/12/13 10:59:44;;;;;;;2.38;1.70;;;18.00;53.40;;;;;;5055187;28;20020;-66
2022/12/13 11:02:32;;;;;;;3.20;1.80;;;18.00;53.40;;;;;;5058440;28;20522;-66
2022/12/13 11:05:11;;;;;;;2.80;1.85;;;18.00;53.30;;;;;;5051105;28;20055;-67
2022/12/13 11:07:37;;;;;;;;;;;18.10;53.40;;;;;;5050825;28;20380;-66
2022/12/13 11:10:26;;;;;;;2.67;1.80;;;18.00;53.30;;;;;;5060667;28;20008;-66
2022/12/13 11:12:59;;;;;;;2.42;1.70;;;18.10;53.40;;;;;;5029513;28;20028;-66
2022/12/13 11:15:28;;;;;;;2.70;1.70;;;18.10;53.90;;;;;;5060986;28;20430;-65
2022/12/13 11:18:00;;;;;;;2.83;1.70;;;18.00;53.30;;;;;;5048257;28;20112;-66
2022/12/13 11:20:33;;;;;;;3.28;2.05;;;18.10;53.40;;;;;;5052635;28;20104;-65
2022/12/13 11:23:22;;;;;;;2.47;1.60;;;18.00;53.30;;;;;;5057429;28;20040;-66
2022/12/13 11:25:53;;;;;;;2.72;1.70;;;18.00;53.30;;;;;;5045081;28;20048;-66
2022/12/13 11:28:53;;;;;;;2.33;1.60;;;18.00;53.30;;;;;;5050159;28;20352;-66
2022/12/13 11:31:52;;;;;;;2.78;1.88;;;18.00;53.70;;;;;;5019864;28;20033;-66
2022/12/13 11:34:33;;;;;;;2.95;1.70;;;18.00;53.30;;;;;;5058544;28;20032;-66
2022/12/13 11:37:19;;;;;;;3.00;1.80;;;18.00;53.30;;;;;;5058419;28;20024;-66
2022/12/13 11:39:53;;;;;;;2.67;1.65;;;18.00;53.30;;;;;;5062086;28;20180;-66
2022/12/13 11:42:33;;;;;;;3.05;1.95;;;18.00;53.30;;;;;;5051133;28;20032;-66
2022/12/13 11:45:14;;;;;;;2.65;1.65;;;18.00;53.30;;;;;;5054106;28;20135;-66
2022/12/13 11:48:08;;;;;;;2.80;1.90;;;18.00;53.30;;;;;;5056908;28;20107;-65
2022/12/13 11:50:44;;;;;;;2.70;1.70;;;18.00;53.20;;;;;;5044776;28;20086;-66
2022/12/13 11:53:38;;;;;;;2.13;1.60;;;18.00;53.20;;;;;;5061802;28;20566;-67
2022/12/13 11:56:16;;;;;;;3.38;1.95;;;18.00;53.20;;;;;;5047986;28;20044;-66
2022/12/13 11:58:44;;;;;;;3.58;2.08;;;18.00;53.20;;;;;;5047537;28;20018;-66
2022/12/13 12:01:14;;;;;;;3.08;1.80;;;18.00;53.20;;;;;;5054162;28;20098;-67
2022/12/13 12:03:47;;;;;;;2.25;1.58;;;18.00;53.20;;;;;;5062028;28;20024;-65
2022/12/13 12:06:19;;;;;;;2.67;1.60;;;18.00;53.20;;;;;;5058893;28;20100;-65
2022/12/13 12:09:03;;;;;;;2.38;1.70;;;18.00;53.30;;;;;;5046163;28;20115;-66
2022/12/13 12:11:30;;;;;;;2.45;1.67;;;18.00;53.30;;;;;;5049149;28;20045;-65
2022/12/13 12:14:12;;;;;;;2.97;1.70;;;18.00;53.20;;;;;;5044422;28;20441;-65
2022/12/13 12:16:49;;;;;;;2.85;1.90;;;18.00;53.20;;;;;;5053913;28;20075;-66
2022/12/13 12:19:19;;;;;;;2.92;1.83;;;18.00;53.20;;;;;;5056631;28;20077;-65
2022/12/13 12:22:07;;;;;;;2.47;1.60;;;18.00;53.10;;;;;;5053175;28;20074;-65
2022/12/13 12:25:14;;;;;;;2.97;1.67;;;18.00;53.10;;;;;;5028423;28;20045;-66
2022/12/13 12:27:53;;;;;;;3.00;1.90;;;18.00;53.10;;;;;;5009419;28;20037;-65
2022/12/13 12:30:31;;;;;;;3.78;1.98;;;18.00;53.20;;;;;;5053288;28;20025;-65
2022/12/13 12:33:21;;;;;;;3.35;1.90;;;18.00;53.20;;;;;;5054368;28;20052;-66
2022/12/13 12:36:16;;;;;;;3.92;1.77;;;18.00;53.20;;;;;;5054249;28;20028;-66
2022/12/13 12:39:00;;;;;;;3.65;1.95;;;18.00;53.20;;;;;;5046893;28;20072;-66
2022/12/13 12:41:44;;;;;;;3.58;2.22;;;18.00;53.20;;;;;;5053378;28;20070;-66
2022/12/13 12:44:12;;;;;;;3.55;2.00;;;18.00;53.30;;;;;;5056774;28;20115;-66
2022/12/13 12:46:45;;;;;;;4.50;2.55;;;18.00;53.30;;;;;;5056398;28;20029;-65
2022/12/13 12:49:31;;;;;;;7.15;3.80;;;18.00;53.40;;;;;;5052787;28;20029;-67
2022/12/13 12:52:04;;;;;;;6.05;3.85;;;18.00;53.40;;;;;;5051262;28;20163;-66
2022/12/13 12:55:01;;;;;;;7.43;4.03;;;18.00;53.40;;;;;;5047637;28;20025;-66
2022/12/13 12:57:39;;;;;;;9.85;5.30;;;18.00;53.40;;;;;;5050568;28;20074;-66
2022/12/13 13:00:20;;;;;;;8.73;5.47;;;18.00;53.50;;;;;;5049822;28;20095;-66
2022/12/13 13:03:13;;;;;;;11.88;6.95;;;18.00;53.50;;;;;;5045911;28;20039;-65
2022/12/13 13:05:43;;;;;;;11.00;6.38;;;18.00;53.50;;;;;;5041237;28;20028;-66
2022/12/13 13:08:22;;;;;;;10.85;6.70;;;18.00;53.60;;;;;;5040027;28;20038;-65
2022/12/13 13:10:49;;;;;;;13.20;7.82;;;18.00;53.70;;;;;;5054719;28;20060;-65